Time;durP1;ratioP1;P1;durP2;ratioP2;P2;SDS_P1;SDS_P2;PMS_P1;PMS_P2;Temp;Humidity;BMP_temperature;BMP_pressure;BME280_temperature;BME280_humidity;BME280_pressure;Samples;Min_cycle;Max_cycle;Signal;HPM_P1;HPM_P2
2024/01/29 00:02:14;;;;;;;;;;;;;;;17.21;36.06;102541.47;4893675;29;1078;-58
2024/01/29 00:04:40;;;;;;;;;;;;;;;16.25;37.80;102534.16;4896094;29;1960;-56
2024/01/29 00:07:06;;;;;;;;;;;;;;;15.81;38.77;102533.28;4893879;29;1054;-58
2024/01/29 00:09:31;;;;;;;;;;;;;;;15.50;39.50;102524.78;4895758;29;1073;-56
2024/01/29 00:11:57;;;;;;;;;;;;;;;16.36;37.73;102520.41;4888916;29;1050;-60
2024/01/29 00:14:22;;;;;;;;;;;;;;;17.39;35.72;102507.81;4887746;29;1103;-62
2024/01/29 00:16:48;;;;;;;;;;;;;;;16.50;37.37;102507.38;4894220;29;2357;-62
2024/01/29 00:19:14;;;;;;;;;;;;;;;15.90;38.66;102508.13;4887401;29;1022;-60
2024/01/29 00:21:39;;;;;;;;;;;;;;;15.65;38.98;102512.69;4900842;29;1053;-62
2024/01/29 00:24:05;;;;;;;;;;;;;;;15.64;39.01;102508.31;4888145;29;1989;-59
2024/01/29 00:26:30;;;;;;;;;;;;;;;17.00;36.64;102512.25;4897054;29;1487;-59
2024/01/29 00:28:56;;;;;;;;;;;;;;;17.08;36.24;102507.44;4888152;29;1240;-58
2024/01/29 00:31:22;;;;;;;;;;;;;;;16.18;37.78;102509.69;4900374;29;1209;-60
2024/01/29 00:33:48;;;;;;;;;;;;;;;15.75;38.67;102510.50;4883170;29;1133;-58
2024/01/29 00:36:14;;;;;;;;;;;;;;;15.66;39.31;102511.75;4887658;29;1083;-59
2024/01/29 00:38:39;;;;;;;;;;;;;;;17.15;36.25;102504.53;4882877;29;1124;-59
2024/01/29 00:41:05;;;;;;;;;;;;;;;16.92;36.43;102503.78;4882750;29;1035;-59
2024/01/29 00:43:30;;;;;;;;;;;;;;;16.12;37.78;102499.31;4887178;29;1973;-58
2024/01/29 00:45:56;;;;;;;;;;;;;;;15.83;38.82;102502.22;4889899;29;1158;-59
2024/01/29 00:48:23;;;;;;;;;;;;;;;15.73;39.12;102508.84;4894223;29;2907;-58
2024/01/29 00:50:48;;;;;;;;;;;;;;;17.12;36.31;102509.06;4893274;29;1111;-56
2024/01/29 00:53:15;;;;;;;;;;;;;;;17.07;36.02;102512.81;4895200;29;1030;-57
2024/01/29 00:55:43;;;;;;;;;;;;;;;16.24;37.72;102506.75;4882226;29;1023;-58
2024/01/29 00:58:09;;;;;;;;;;;;;;;15.78;38.59;102512.19;4899686;29;1546;-56
2024/01/29 01:00:35;;;;;;;;;;;;;;;15.57;39.34;102519.22;4900453;29;1121;-58
2024/01/29 01:03:00;;;;;;;;;;;;;;;16.94;36.51;102515.19;4900339;29;1974;-58
2024/01/29 01:05:26;;;;;;;;;;;;;;;17.41;35.46;102523.72;4900325;29;1302;-59
2024/01/29 01:07:51;;;;;;;;;;;;;;;16.43;37.39;102529.00;4900900;29;1150;-57
2024/01/29 01:10:18;;;;;;;;;;;;;;;15.91;38.23;102524.00;4900521;29;1115;-56
2024/01/29 01:12:43;;;;;;;;;;;;;;;15.60;39.36;102527.06;4895214;29;1157;-55
2024/01/29 01:15:09;;;;;;;;;;;;;;;15.78;39.20;102525.47;4881742;29;1055;-56
2024/01/29 01:17:34;;;;;;;;;;;;;;;17.19;36.25;102530.03;4886429;29;2514;-57
2024/01/29 01:20:00;;;;;;;;;;;;;;;17.18;35.77;102531.00;4900786;29;1141;-58
2024/01/29 01:22:25;;;;;;;;;;;;;;;16.30;37.49;102528.66;4900285;29;1210;-55
2024/01/29 01:24:51;;;;;;;;;;;;;;;15.72;38.90;102534.53;4892929;29;1988;-55
2024/01/29 01:27:17;;;;;;;;;;;;;;;15.53;39.05;102548.50;4898648;29;1027;-57
2024/01/29 01:29:43;;;;;;;;;;;;;;;16.76;36.98;102552.34;4900273;29;1053;-59
2024/01/29 01:32:09;;;;;;;;;;;;;;;17.36;35.58;102551.41;4887205;29;1081;-61
2024/01/29 01:34:34;;;;;;;;;;;;;;;16.38;37.41;102559.25;4900664;29;1034;-55
2024/01/29 01:37:00;;;;;;;;;;;;;;;15.82;38.58;102555.38;4891050;29;1138;-57
2024/01/29 01:39:25;;;;;;;;;;;;;;;15.52;39.36;102560.06;4900599;29;1158;-56
2024/01/29 01:41:51;;;;;;;;;;;;;;;15.40;39.54;102564.06;4895947;29;1054;-55
2024/01/29 01:44:16;;;;;;;;;;;;;;;16.77;37.19;102560.22;4893816;29;1914;-55
2024/01/29 01:46:42;;;;;;;;;;;;;;;17.25;36.00;102556.34;4897393;29;2681;-57
2024/01/29 01:49:07;;;;;;;;;;;;;;;16.30;37.93;102552.56;4895020;29;1066;-53
2024/01/29 01:51:34;;;;;;;;;;;;;;;15.75;38.86;102550.31;4886967;29;1170;-59
2024/01/29 01:54:00;;;;;;;;;;;;;;;15.47;39.44;102540.81;4906863;29;1147;-60
2024/01/29 01:56:26;;;;;;;;;;;;;;;15.81;38.98;102551.00;4888899;29;1124;-59
2024/01/29 01:58:51;;;;;;;;;;;;;;;17.10;36.49;102544.66;4914913;29;1046;-59
2024/01/29 02:01:17;;;;;;;;;;;;;;;16.88;36.45;102542.94;4892014;29;924;-58
2024/01/29 02:03:43;;;;;;;;;;;;;;;16.11;37.91;102535.63;4902556;29;1992;-60
2024/01/29 02:06:09;;;;;;;;;;;;;;;15.62;38.80;102539.34;4890672;29;1248;-58
2024/01/29 02:08:35;;;;;;;;;;;;;;;15.43;39.27;102548.00;4892800;29;1078;-59
2024/01/29 02:11:00;;;;;;;;;;;;;;;16.54;37.50;102553.28;4884527;29;1018;-60
2024/01/29 02:13:26;;;;;;;;;;;;;;;17.55;35.50;102544.34;4884988;29;1023;-59
2024/01/29 02:15:52;;;;;;;;;;;;;;;16.58;37.30;102540.72;4888183;29;1038;-60
2024/01/29 02:18:17;;;;;;;;;;;;;;;15.94;38.20;102538.06;4895483;29;2760;-59
2024/01/29 02:20:43;;;;;;;;;;;;;;;15.63;38.93;102538.41;4890324;29;1045;-61
2024/01/29 02:23:08;;;;;;;;;;;;;;;15.58;39.16;102527.09;4893349;29;1914;-60
2024/01/29 02:25:34;;;;;;;;;;;;;;;17.02;36.47;102534.31;4896517;29;1126;-59
2024/01/29 02:27:59;;;;;;;;;;;;;;;17.02;36.13;102529.00;4903098;29;1180;-58
2024/01/29 02:30:25;;;;;;;;;;;;;;;16.16;38.03;102530.13;4886437;29;1050;-61
2024/01/29 02:32:50;;;;;;;;;;;;;;;15.64;39.20;102533.97;4883923;29;1030;-60
2024/01/29 02:35:16;;;;;;;;;;;;;;;15.57;39.10;102532.47;4899701;29;1003;-60
2024/01/29 02:37:41;;;;;;;;;;;;;;;17.07;36.49;102550.94;4902449;29;1000;-60
2024/01/29 02:40:07;;;;;;;;;;;;;;;16.96;36.32;102548.78;4899469;29;1003;-59
2024/01/29 02:42:33;;;;;;;;;;;;;;;16.13;37.97;102547.03;4884222;29;1109;-58
2024/01/29 02:44:58;;;;;;;;;;;;;;;15.67;38.82;102550.63;4884004;29;1978;-61
2024/01/29 02:47:24;;;;;;;;;;;;;;;15.38;39.43;102549.97;4884423;29;2761;-61
2024/01/29 02:49:49;;;;;;;;;;;;;;;16.34;37.66;102549.72;4893490;29;1221;-59
2024/01/29 02:52:16;;;;;;;;;;;;;;;17.48;35.49;102563.22;4902659;29;1051;-61
2024/01/29 02:54:41;;;;;;;;;;;;;;;16.52;37.42;102563.97;4902542;29;1213;-61
2024/01/29 02:57:07;;;;;;;;;;;;;;;15.92;38.28;102564.69;4902034;29;1162;-60
2024/01/29 02:59:32;;;;;;;;;;;;;;;15.57;39.12;102578.44;4901620;29;1119;-61
2024/01/29 03:01:58;;;;;;;;;;;;;;;15.98;38.77;102572.41;4891760;29;903;-61
2024/01/29 03:04:24;;;;;;;;;;;;;;;17.27;36.10;102585.56;4887041;29;1918;-60
2024/01/29 03:06:49;;;;;;;;;;;;;;;16.75;36.79;102575.38;4902136;29;1050;-61
2024/01/29 03:09:15;;;;;;;;;;;;;;;16.08;38.15;102580.84;4890046;29;1119;-61
2024/01/29 03:11:43;;;;;;;;;;;;;;;15.62;38.88;102579.13;4902367;29;1011;-60
2024/01/29 03:14:09;;;;;;;;;;;;;;;15.36;39.25;102580.16;4893802;29;1113;-60
2024/01/29 03:16:34;;;;;;;;;;;;;;;16.77;37.19;102583.28;4896687;29;2402;-60
2024/01/29 03:19:00;;;;;;;;;;;;;;;17.19;35.88;102578.78;4899263;29;1042;-59
2024/01/29 03:21:27;;;;;;;;;;;;;;;16.20;37.82;102581.31;4901899;29;1233;-61
2024/01/29 03:23:53;;;;;;;;;;;;;;;15.74;38.82;102579.56;4898506;29;1978;-59
2024/01/29 03:26:19;;;;;;;;;;;;;;;15.81;38.87;102586.38;4889316;29;899;-61
2024/01/29 03:28:44;;;;;;;;;;;;;;;17.22;36.13;102583.97;4895473;29;1091;-61
2024/01/29 03:31:10;;;;;;;;;;;;;;;16.85;36.31;102580.31;4883420;29;1098;-60
2024/01/29 03:33:35;;;;;;;;;;;;;;;16.08;37.90;102585.34;4899155;29;1174;-60
2024/01/29 03:36:04;;;;;;;;;;;;;;;15.70;39.17;102583.28;4901527;29;1062;-60
2024/01/29 03:38:30;;;;;;;;;;;;;;;15.88;38.55;102590.47;4896538;29;994;-59
2024/01/29 03:40:55;;;;;;;;;;;;;;;17.21;36.00;102592.88;4901908;29;1058;-59
2024/01/29 03:43:21;;;;;;;;;;;;;;;16.80;36.73;102583.13;4901238;29;1906;-60
2024/01/29 03:45:47;;;;;;;;;;;;;;;16.06;37.87;102584.53;4901328;29;1078;-60
2024/01/29 03:48:12;;;;;;;;;;;;;;;15.63;39.00;102596.75;4899567;29;2629;-60
2024/01/29 03:50:38;;;;;;;;;;;;;;;15.71;39.20;102595.59;4888754;29;895;-60
2024/01/29 03:53:03;;;;;;;;;;;;;;;17.12;36.29;102591.50;4885493;29;1043;-61
2024/01/29 03:55:29;;;;;;;;;;;;;;;16.92;36.49;102595.03;4901294;29;1030;-61
2024/01/29 03:57:54;;;;;;;;;;;;;;;16.03;37.85;102594.34;4884929;29;1193;-61
2024/01/29 04:00:22;;;;;;;;;;;;;;;15.67;38.78;102597.50;4882839;29;1133;-59
2024/01/29 04:02:49;;;;;;;;;;;;;;;15.95;38.37;102595.56;4887699;29;1124;-58
2024/01/29 04:05:15;;;;;;;;;;;;;;;17.37;35.89;102597.47;4891489;29;1899;-58
2024/01/29 04:07:41;;;;;;;;;;;;;;;16.64;36.73;102599.78;4895108;29;1181;-59
2024/01/29 04:10:06;;;;;;;;;;;;;;;16.00;38.05;102594.47;4892707;29;1202;-55
2024/01/29 04:12:32;;;;;;;;;;;;;;;15.58;39.16;102606.69;4897371;29;987;-59
2024/01/29 04:14:57;;;;;;;;;;;;;;;15.51;39.28;102611.41;4895753;29;832;-60
2024/01/29 04:17:23;;;;;;;;;;;;;;;16.97;36.43;102608.09;4888292;29;2581;-57
2024/01/29 04:19:49;;;;;;;;;;;;;;;17.35;35.57;102604.69;4891110;29;1197;-58
2024/01/29 04:22:14;;;;;;;;;;;;;;;16.34;37.54;102616.09;4898428;29;1215;-53
2024/01/29 04:24:39;;;;;;;;;;;;;;;15.72;38.58;102610.59;4900631;29;1898;-63
2024/01/29 04:27:05;;;;;;;;;;;;;;;15.53;39.31;102621.94;4892688;29;1062;-60
2024/01/29 04:29:30;;;;;;;;;;;;;;;16.14;38.13;102616.94;4900354;29;1124;-61
2024/01/29 04:31:56;;;;;;;;;;;;;;;17.36;35.83;102627.69;4900812;29;1157;-62
2024/01/29 04:34:22;;;;;;;;;;;;;;;16.74;36.63;102628.59;4891203;29;1190;-62
2024/01/29 04:36:47;;;;;;;;;;;;;;;16.02;37.77;102624.47;4893968;29;1086;-53
2024/01/29 04:39:13;;;;;;;;;;;;;;;15.65;38.91;102642.69;4895841;29;929;-61
2024/01/29 04:41:38;;;;;;;;;;;;;;;16.00;38.36;102644.91;4900430;29;1065;-61
2024/01/29 04:44:04;;;;;;;;;;;;;;;17.37;35.79;102650.69;4900687;29;1966;-60
2024/01/29 04:46:29;;;;;;;;;;;;;;;16.68;36.70;102656.31;4896524;29;1983;-58
2024/01/29 04:48:55;;;;;;;;;;;;;;;16.01;38.27;102656.38;4882041;29;1035;-59
2024/01/29 04:51:21;;;;;;;;;;;;;;;15.63;38.85;102659.59;4896700;29;1150;-63
2024/01/29 04:53:46;;;;;;;;;;;;;;;15.91;38.23;102655.88;4915471;29;1071;-57
2024/01/29 04:56:12;;;;;;;;;;;;;;;17.21;36.14;102648.75;4887258;29;1026;-63
2024/01/29 04:58:37;;;;;;;;;;;;;;;16.86;36.36;102649.34;4900882;29;1147;-54
2024/01/29 05:01:03;;;;;;;;;;;;;;;16.06;38.03;102659.72;4900526;29;1113;-59
2024/01/29 05:03:28;;;;;;;;;;;;;;;15.64;38.66;102662.19;4885871;29;1907;-55
2024/01/29 05:05:54;;;;;;;;;;;;;;;15.69;38.97;102659.34;4882057;29;1122;-53
2024/01/29 05:08:20;;;;;;;;;;;;;;;17.12;36.13;102665.09;4894509;29;1503;-55
2024/01/29 05:10:45;;;;;;;;;;;;;;;17.11;36.04;102655.41;4898041;29;998;-54
2024/01/29 05:13:11;;;;;;;;;;;;;;;16.28;37.69;102653.56;4900810;29;1118;-51
2024/01/29 05:15:37;;;;;;;;;;;;;;;15.71;38.88;102652.22;4897829;29;909;-52
2024/01/29 05:18:02;;;;;;;;;;;;;;;15.50;39.06;102667.13;4891158;29;2211;-49
2024/01/29 05:20:28;;;;;;;;;;;;;;;17.11;36.16;102656.28;4901869;29;1111;-52
2024/01/29 05:22:53;;;;;;;;;;;;;;;15.83;38.36;102650.00;4886257;29;1015;-52
2024/01/29 05:25:19;;;;;;;;;;;;;;;15.01;40.17;102657.41;4892597;29;1903;-51
2024/01/29 05:27:44;;;;;;;;;;;;;;;14.66;41.05;102650.59;4887193;29;990;-51
2024/01/29 05:30:10;;;;;;;;;;;;;;;16.64;37.14;102650.28;4903690;29;1111;-54
2024/01/29 05:32:35;;;;;;;;;;;;;;;15.00;39.74;102640.63;4904214;29;1038;-52
2024/01/29 05:35:01;;;;;;;;;;;;;;;15.53;39.31;102638.69;4903990;29;1134;-53
2024/01/29 05:37:26;;;;;;;;;;;;;;;17.28;35.89;102646.66;4902813;29;1070;-51
2024/01/29 05:39:52;;;;;;;;;;;;;;;15.48;38.93;102639.81;4900431;29;858;-54
2024/01/29 05:42:17;;;;;;;;;;;;;;;14.89;40.50;102637.50;4903057;29;1091;-53
2024/01/29 05:44:43;;;;;;;;;;;;;;;15.34;39.71;102635.03;4903715;29;1914;-50
2024/01/29 05:47:08;;;;;;;;;;;;;;;16.76;36.71;102648.88;4891456;29;2147;-56
2024/01/29 05:49:34;;;;;;;;;;;;;;;15.21;39.77;102645.22;4890993;29;1204;-54
2024/01/29 05:51:59;;;;;;;;;;;;;;;14.80;40.73;102650.16;4917483;29;898;-53
2024/01/29 05:54:25;;;;;;;;;;;;;;;16.02;38.71;102655.44;4917869;29;1078;-50
2024/01/29 05:56:51;;;;;;;;;;;;;;;16.62;36.81;102660.09;4903398;29;995;-54
2024/01/29 05:59:16;;;;;;;;;;;;;;;15.17;39.90;102657.72;4903282;29;1081;-55
2024/01/29 06:01:42;;;;;;;;;;;;;;;15.55;39.17;102655.44;4903464;29;1026;-49
2024/01/29 06:04:08;;;;;;;;;;;;;;;15.95;38.00;102661.91;4890255;29;1915;-46
2024/01/29 06:06:33;;;;;;;;;;;;;;;15.02;40.05;102659.13;4889137;29;1226;-48
2024/01/29 06:08:59;;;;;;;;;;;;;;;15.93;38.50;102661.97;4902205;29;880;-49
2024/01/29 06:11:24;;;;;;;;;;;;;;;15.90;38.26;102668.25;4895333;29;919;-47
2024/01/29 06:13:50;;;;;;;;;;;;;;;14.98;40.26;102674.28;4903050;29;966;-47
2024/01/29 06:16:21;;;;;;;;;;;;;;;16.97;36.58;102669.25;4886644;29;2098;-50
2024/01/29 06:18:47;;;;;;;;;;;;;;;15.47;39.08;102680.50;4897264;29;1127;-50
2024/01/29 06:21:13;;;;;;;;;;;;;;;17.00;36.39;102675.31;4902932;29;1054;-52
2024/01/29 06:23:38;;;;;;;;;;;;;;;16.67;36.71;102682.94;4902414;29;1904;-52
2024/01/29 06:26:04;;;;;;;;;;;;;;;15.52;38.86;102690.03;4894974;29;1022;-47
2024/01/29 06:28:29;;;;;;;;;;;;;;;15.15;39.79;102680.75;4896553;29;1006;-49
2024/01/29 06:30:55;;;;;;;;;;;;;;;17.27;36.00;102690.13;4884110;29;1014;-52
2024/01/29 06:33:20;;;;;;;;;;;;;;;15.75;38.50;102690.94;4898013;29;1148;-48
2024/01/29 06:35:46;;;;;;;;;;;;;;;15.10;39.89;102686.22;4902968;29;1026;-51
2024/01/29 06:38:11;;;;;;;;;;;;;;;17.21;36.17;102693.09;4890475;29;1122;-49
2024/01/29 06:40:37;;;;;;;;;;;;;;;16.11;37.89;102692.28;4891573;29;2259;-49
2024/01/29 06:43:03;;;;;;;;;;;;;;;15.32;39.63;102693.41;4898452;29;1266;-47
2024/01/29 06:45:28;;;;;;;;;;;;;;;16.67;37.26;102691.78;4902653;29;1971;-50
2024/01/29 06:47:54;;;;;;;;;;;;;;;16.18;37.64;102695.56;4900389;29;1394;-50
2024/01/29 06:50:19;;;;;;;;;;;;;;;15.41;39.65;102694.88;4886574;29;1177;-47
2024/01/29 06:52:45;;;;;;;;;;;;;;;17.02;36.58;102676.13;4896356;29;850;-51
2024/01/29 06:55:11;;;;;;;;;;;;;;;15.78;38.34;102689.97;4902108;29;1102;-48
2024/01/29 06:57:36;;;;;;;;;;;;;;;15.16;39.89;102685.16;4901702;29;1105;-49
2024/01/29 07:00:03;;;;;;;;;;;;;;;16.66;36.79;102690.06;4902707;29;1359;-50
2024/01/29 07:02:29;;;;;;;;;;;;;;;15.41;39.46;102686.91;4888774;29;1309;-51
2024/01/29 07:04:55;;;;;;;;;;;;;;;16.38;37.91;102683.25;4883476;29;1891;-48
2024/01/29 07:07:20;;;;;;;;;;;;;;;16.81;36.58;102679.69;4896817;29;1202;-46
2024/01/29 07:09:46;;;;;;;;;;;;;;;15.56;38.77;102680.19;4899926;29;1269;-47
2024/01/29 07:12:15;;;;;;;;;;;;;;;15.15;39.81;102686.94;4898804;29;1169;-50
2024/01/29 07:14:40;;;;;;;;;;;;;;;16.68;36.89;102668.75;4901592;29;1153;-47
2024/01/29 07:17:06;;;;;;;;;;;;;;;15.41;39.54;102681.63;4889713;29;1142;-49
2024/01/29 07:19:33;;;;;;;;;;;;;;;16.88;36.87;102673.19;4893501;29;1093;-51
2024/01/29 07:21:59;;;;;;;;;;;;;;;16.31;37.47;102695.91;4902195;29;1038;-50
2024/01/29 07:24:25;;;;;;;;;;;;;;;15.62;39.02;102695.00;4888974;29;2105;-51
2024/01/29 07:26:51;;;;;;;;;;;;;;;17.56;35.21;102701.28;4901295;29;1331;-49
2024/01/29 07:29:16;;;;;;;;;;;;;;;15.90;37.98;102708.06;4893476;29;893;-46
2024/01/29 07:31:42;;;;;;;;;;;;;;;15.30;39.72;102719.13;4900681;29;1451;-51
2024/01/29 07:34:07;;;;;;;;;;;;;;;15.13;39.88;102720.59;4899602;29;1114;-50
2024/01/29 07:36:33;;;;;;;;;;;;;;;16.26;37.67;102732.41;4883373;29;1162;-50
2024/01/29 07:38:58;;;;;;;;;;;;;;;16.25;37.88;102747.47;4891048;29;1317;-47
2024/01/29 07:41:26;;;;;;;;;;;;;;;17.85;34.83;102741.63;4895686;29;1169;-50
2024/01/29 07:43:51;;;;;;;;;;;;;;;16.36;37.49;102747.06;4887602;29;1989;-47
2024/01/29 07:46:17;;;;;;;;;;;;;;;15.63;39.09;102734.72;4901487;29;1023;-49
2024/01/29 07:48:43;;;;;;;;;;;;;;;17.08;36.49;102737.94;4901062;29;1090;-48
2024/01/29 07:51:08;;;;;;;;;;;;;;;15.93;38.42;102746.91;4891194;29;1217;-47
2024/01/29 07:53:34;;;;;;;;;;;;;;;16.07;38.26;102756.16;4887065;29;1074;-48
2024/01/29 07:55:59;;;;;;;;;;;;;;;17.05;36.06;102754.03;4900430;29;1308;-52
2024/01/29 07:58:24;;;;;;;;;;;;;;;15.72;38.54;102765.38;4901745;29;1425;-50
2024/01/29 08:00:50;;;;;;;;;;;;;;;15.35;39.71;102772.00;4901553;29;1446;-53
2024/01/29 08:03:15;;;;;;;;;;;;;;;15.10;40.07;102759.63;4900852;29;1914;-48
2024/01/29 08:05:41;;;;;;;;;;;;;;;16.40;37.98;102774.34;4900555;29;1257;-48
2024/01/29 08:08:06;;;;;;;;;;;;;;;15.65;38.56;102762.06;4900563;29;1098;-50
2024/01/29 08:10:33;;;;;;;;;;;;;;;15.96;38.68;102780.44;4900848;29;1134;-52
2024/01/29 08:12:58;;;;;;;;;;;;;;;16.93;36.19;102782.00;4887456;29;1081;-49
2024/01/29 08:15:24;;;;;;;;;;;;;;;15.59;39.29;102799.44;4882409;29;1020;-52
2024/01/29 08:17:49;;;;;;;;;;;;;;;16.16;38.59;102796.50;4882913;29;1039;-53
2024/01/29 08:20:15;;;;;;;;;;;;;;;15.78;38.60;102791.66;4895199;29;1281;-53
2024/01/29 08:22:40;;;;;;;;;;;;;;;16.24;38.14;102800.66;4896817;29;1043;-50
2024/01/29 08:25:06;;;;;;;;;;;;;;;17.60;35.22;102795.16;4900639;29;1914;-48
2024/01/29 08:27:32;;;;;;;;;;;;;;;15.88;38.28;102804.63;4890435;29;892;-50
2024/01/29 08:29:57;;;;;;;;;;;;;;;15.36;39.40;102803.78;4900871;29;1026;-48
2024/01/29 08:32:23;;;;;;;;;;;;;;;15.28;40.11;102808.47;4900429;29;1074;-49
2024/01/29 08:34:49;;;;;;;;;;;;;;;17.39;35.78;102808.44;4888842;29;1137;-51
2024/01/29 08:37:15;;;;;;;;;;;;;;;15.64;38.88;102805.47;4899490;29;1339;-50
2024/01/29 08:39:40;;;;;;;;;;;;;;;15.21;39.78;102806.94;4885523;29;1062;-49
2024/01/29 08:42:06;;;;;;;;;;;;;;;15.61;39.35;102813.53;4891614;29;1308;-48
2024/01/29 08:44:31;;;;;;;;;;;;;;;17.07;36.02;102818.63;4894848;29;1910;-49
2024/01/29 08:46:57;;;;;;;;;;;;;;;15.58;38.95;102826.03;4892206;29;1394;-51
2024/01/29 08:49:23;;;;;;;;;;;;;;;16.26;37.84;102828.03;4892854;29;1510;-47
2024/01/29 08:51:48;;;;;;;;;;;;;;;16.78;36.53;102832.22;4894969;29;1335;-45
2024/01/29 08:54:14;;;;;;;;;;;;;;;15.57;38.93;102827.81;4890732;29;1244;-49
2024/01/29 08:56:40;;;;;;;;;;;;;;;16.56;37.33;102833.06;4901602;29;1192;-49
2024/01/29 08:59:06;;;;;;;;;;;;;;;16.35;37.48;102824.16;4901575;29;1202;-45
2024/01/29 09:01:31;;;;;;;;;;;;;;;15.51;39.30;102836.88;4899321;29;1325;-47
2024/01/29 09:03:57;;;;;;;;;;;;;;;17.20;36.03;102833.16;4903794;29;1911;-46
2024/01/29 09:06:22;;;;;;;;;;;;;;;15.80;38.35;102839.38;4892784;29;1240;-46
2024/01/29 09:08:48;;;;;;;;;;;;;;;15.31;39.48;102826.94;4907129;29;1233;-45
2024/01/29 09:11:13;;;;;;;;;;;;;;;17.13;36.29;102816.59;4900991;29;1196;-46
2024/01/29 09:13:39;;;;;;;;;;;;;;;16.42;37.26;102833.59;4902368;29;1300;-45
2024/01/29 09:16:05;;;;;;;;;;;;;;;15.54;39.00;102830.56;4899549;29;1510;-50
2024/01/29 09:18:30;;;;;;;;;;;;;;;17.05;36.35;102823.16;4895649;29;1320;-46
2024/01/29 09:20:56;;;;;;;;;;;;;;;16.56;37.03;102824.22;4899172;29;1138;-49
2024/01/29 09:23:21;;;;;;;;;;;;;;;16.20;37.94;102821.13;4891372;29;1982;-48
2024/01/29 09:25:47;;;;;;;;;;;;;;;18.04;34.77;102810.00;4914803;29;1085;-47
2024/01/29 09:28:12;;;;;;;;;;;;;;;16.38;37.50;102813.41;4902391;29;1331;-45
2024/01/29 09:30:38;;;;;;;;;;;;;;;15.65;38.66;102811.59;4897479;29;944;-46
2024/01/29 09:33:03;;;;;;;;;;;;;;;17.38;35.85;102807.56;4901230;29;1115;-45
2024/01/29 09:35:29;;;;;;;;;;;;;;;15.93;38.41;102802.66;4900543;29;1058;-47
2024/01/29 09:37:54;;;;;;;;;;;;;;;15.52;39.00;102795.25;4885227;29;1101;-48
2024/01/29 09:40:20;;;;;;;;;;;;;;;15.34;39.94;102802.09;4895018;29;1475;-45
2024/01/29 09:42:48;;;;;;;;;;;;;;;17.04;36.27;102798.34;4901609;29;1406;-47
2024/01/29 09:45:13;;;;;;;;;;;;;;;15.76;38.54;102805.94;4902585;29;1984;-47
2024/01/29 09:47:39;;;;;;;;;;;;;;;16.22;37.99;102805.16;4912638;29;1454;-42
2024/01/29 09:50:05;;;;;;;;;;;;;;;17.02;36.04;102795.75;4917873;29;1376;-48
2024/01/29 09:52:32;;;;;;;;;;;;;;;15.67;38.51;102799.16;4897869;29;1166;-43
2024/01/29 09:54:58;;;;;;;;;;;;;;;16.37;37.97;102801.03;4877796;29;1262;-46
2024/01/29 09:57:23;;;;;;;;;;;;;;;16.21;37.54;102799.00;4897985;29;1087;-46
2024/01/29 09:59:49;;;;;;;;;;;;;;;15.39;39.31;102801.03;4890823;29;1158;-48
2024/01/29 10:02:14;;;;;;;;;;;;;;;17.33;35.92;102798.06;4903010;29;1327;-48
2024/01/29 10:04:40;;;;;;;;;;;;;;;15.96;38.10;102799.88;4916687;29;1903;-45
2024/01/29 10:07:05;;;;;;;;;;;;;;;15.49;39.10;102804.22;4899499;29;1328;-45
2024/01/29 10:09:31;;;;;;;;;;;;;;;15.27;39.91;102804.97;4892215;29;1131;-46
2024/01/29 10:11:56;;;;;;;;;;;;;;;17.28;35.76;102794.75;4902589;29;1198;-45
2024/01/29 10:14:22;;;;;;;;;;;;;;;15.68;38.80;102795.59;4902031;29;1169;-45
2024/01/29 10:16:48;;;;;;;;;;;;;;;17.13;36.43;102787.34;4899445;29;1138;-50
2024/01/29 10:19:14;;;;;;;;;;;;;;;16.71;36.43;102785.53;4902296;29;1430;-49
2024/01/29 10:21:40;;;;;;;;;;;;;;;16.06;38.47;102787.16;4903172;29;1196;-49
2024/01/29 10:24:09;;;;;;;;;;;;;;;18.00;34.61;102789.78;4902329;29;1955;-48
2024/01/29 10:26:35;;;;;;;;;;;;;;;16.27;37.40;102788.13;4917515;29;1869;-46
2024/01/29 10:29:03;;;;;;;;;;;;;;;15.64;38.96;102793.97;4899230;29;1348;-49
2024/01/29 10:31:29;;;;;;;;;;;;;;;15.90;39.16;102802.75;4902409;29;1102;-46
2024/01/29 10:33:55;;;;;;;;;;;;;;;16.93;36.45;102784.66;4903241;29;1134;-47
2024/01/29 10:36:21;;;;;;;;;;;;;;;15.78;38.71;102794.31;4892439;29;1043;-47
2024/01/29 10:38:46;;;;;;;;;;;;;;;15.46;39.26;102796.38;4884038;29;1026;-40
2024/01/29 10:41:12;;;;;;;;;;;;;;;16.34;38.38;102794.06;4893660;29;1142;-46
2024/01/29 10:43:38;;;;;;;;;;;;;;;16.92;36.46;102799.72;4884686;29;1906;-46
2024/01/29 10:46:04;;;;;;;;;;;;;;;15.64;38.70;102788.66;4913235;29;1233;-40
2024/01/29 10:48:29;;;;;;;;;;;;;;;15.31;39.88;102795.13;4886607;29;1226;-43
2024/01/29 10:50:55;;;;;;;;;;;;;;;16.02;38.54;102790.84;4891932;29;1209;-42
2024/01/29 10:53:20;;;;;;;;;;;;;;;17.50;35.25;102786.69;4914051;29;1245;-44
2024/01/29 10:55:49;;;;;;;;;;;;;;;15.93;38.15;102791.16;4896352;29;1022;-42
2024/01/29 10:58:15;;;;;;;;;;;;;;;15.77;39.27;102794.38;4884248;29;1278;-46
2024/01/29 11:00:43;;;;;;;;;;;;;;;16.98;36.37;102788.00;4883158;29;1114;-46
2024/01/29 11:03:09;;;;;;;;;;;;;;;15.72;38.84;102778.63;4897053;29;1272;-41
2024/01/29 11:05:35;;;;;;;;;;;;;;;16.65;37.53;102789.28;4899690;29;1913;-45
2024/01/29 11:08:00;;;;;;;;;;;;;;;16.28;37.31;102783.69;4899234;29;1147;-45
2024/01/29 11:10:26;;;;;;;;;;;;;;;16.02;38.53;102766.94;4916890;29;1086;-44
2024/01/29 11:12:52;;;;;;;;;;;;;;;17.83;34.91;102766.59;4904068;29;1106;-46
2024/01/29 11:15:17;;;;;;;;;;;;;;;16.14;37.91;102769.16;4901919;29;1292;-45
2024/01/29 11:17:43;;;;;;;;;;;;;;;16.70;37.48;102762.56;4890092;29;1106;-48
2024/01/29 11:20:12;;;;;;;;;;;;;;;16.81;36.65;102767.41;4883948;29;1138;-45
2024/01/29 11:22:38;;;;;;;;;;;;;;;15.92;38.63;102769.06;4893054;29;1061;-46
2024/01/29 11:25:14;;;;;;;;;;;;;;;17.78;35.24;102761.50;4900495;29;1972;-44
2024/01/29 11:27:40;;;;;;;;;;;;;;;16.14;37.83;102747.91;4902003;29;896;-42
2024/01/29 11:30:11;;;;;;;;;;;;;;;15.74;38.98;102738.78;4889129;29;1080;-49
2024/01/29 11:32:40;;;;;;;;;;;;;;;17.80;35.09;102735.66;4901268;29;1078;-46
2024/01/29 11:35:11;;;;;;;;;;;;;;;16.07;38.25;102734.91;4901701;29;1114;-46
2024/01/29 11:37:37;;;;;;;;;;;;;;;15.64;38.82;102740.91;4888348;29;1070;-49
2024/01/29 11:40:03;;;;;;;;;;;;;;;17.45;35.61;102715.03;4892639;29;1543;-46
2024/01/29 11:42:28;;;;;;;;;;;;;;;15.99;38.30;102709.53;4889297;29;955;-50
2024/01/29 11:44:54;;;;;;;;;;;;;;;15.43;39.47;102712.44;4897833;29;1956;-46
2024/01/29 11:47:21;;;;;;;;;;;;;;;15.39;39.38;102718.81;4885053;29;1150;-47
2024/01/29 11:49:47;;;;;;;;;;;;;;;17.31;36.14;102709.50;4882724;29;1090;-51
2024/01/29 11:52:13;;;;;;;;;;;;;;;16.71;36.93;102696.06;4909479;29;1229;-45
2024/01/29 11:54:38;;;;;;;;;;;;;;;15.82;38.52;102702.19;4886721;29;883;-43
2024/01/29 11:57:04;;;;;;;;;;;;;;;15.85;39.00;102709.19;4897401;29;1136;-45
2024/01/29 11:59:29;;;;;;;;;;;;;;;17.83;35.01;102692.91;4895166;29;1356;-47
2024/01/29 12:01:55;;;;;;;;;;;;;;;16.31;37.43;102695.03;4888089;29;1122;-47
2024/01/29 12:04:20;;;;;;;;;;;;;;;15.72;38.92;102684.88;4900442;29;1895;-48
2024/01/29 12:06:46;;;;;;;;;;;;;;;16.87;36.59;102684.75;4895175;29;1110;-48
2024/01/29 12:09:11;;;;;;;;;;;;;;;15.78;38.63;102687.34;4898455;29;1179;-47
2024/01/29 12:11:37;;;;;;;;;;;;;;;17.21;36.20;102683.31;4891575;29;1023;-47
2024/01/29 12:14:04;;;;;;;;;;;;;;;16.34;37.67;102684.28;4896061;29;1149;-44
2024/01/29 12:16:29;;;;;;;;;;;;;;;15.77;39.05;102681.16;4882641;29;1058;-49
2024/01/29 12:18:55;;;;;;;;;;;;;;;17.61;35.44;102682.41;4891172;29;1032;-48
2024/01/29 12:21:21;;;;;;;;;;;;;;;17.10;36.03;102674.94;4898335;29;1268;-47
2024/01/29 12:23:47;;;;;;;;;;;;;;;16.09;38.30;102677.31;4891744;29;1903;-44
2024/01/29 12:26:13;;;;;;;;;;;;;;;17.16;36.40;102669.34;4893772;29;1329;-47
2024/01/29 12:28:39;;;;;;;;;;;;;;;16.69;36.69;102678.44;4889672;29;1249;-46
2024/01/29 12:31:06;;;;;;;;;;;;;;;15.90;38.38;102678.00;4888276;29;959;-47
2024/01/29 12:33:32;;;;;;;;;;;;;;;16.97;36.85;102677.22;4901028;29;1054;-46
2024/01/29 12:35:57;;;;;;;;;;;;;;;16.64;36.70;102682.16;4897472;29;1121;-45
2024/01/29 12:38:23;;;;;;;;;;;;;;;15.87;38.67;102676.34;4891109;29;1055;-45
2024/01/29 12:40:54;;;;;;;;;;;;;;;17.01;36.68;102674.41;4900855;29;1197;-44